Time;durP1;ratioP1;P1;durP2;ratioP2;P2;SDS_P1;SDS_P2;PMS_P1;PMS_P2;Temp;Humidity;BMP_temperature;BMP_pressure;BME280_temperature;BME280_humidity;BME280_pressure;Samples;Min_cycle;Max_cycle;Signal;HPM_P1;HPM_P2
2022/03/17 00:00:13;;;;;;;26.25;15.65;;;10.20;99.90;;;;;;5066095;28;20272;-74
2022/03/17 00:02:39;;;;;;;24.17;14.70;;;10.20;99.90;;;;;;5054791;28;20032;-73
2022/03/17 00:05:09;;;;;;;25.30;14.25;;;10.20;99.90;;;;;;5074122;28;20036;-73
2022/03/17 00:07:36;;;;;;;23.17;16.05;;;10.20;99.90;;;;;;5078999;28;20107;-73
2022/03/17 00:10:05;;;;;;;20.80;13.57;;;10.20;99.90;;;;;;5057415;28;20047;-73
2022/03/17 00:12:30;;;;;;;21.65;12.85;;;10.20;99.90;;;;;;5055719;28;20044;-73
2022/03/17 00:14:56;;;;;;;23.60;17.15;;;10.20;99.90;;;;;;5047557;28;20395;-73
2022/03/17 00:17:22;;;;;;;26.05;16.48;;;10.20;99.90;;;;;;5073878;28;20064;-73
2022/03/17 00:19:47;;;;;;;24.88;17.15;;;10.20;99.90;;;;;;5058105;28;20047;-73
2022/03/17 00:22:16;;;;;;;23.67;14.40;;;10.10;99.90;;;;;;5051512;28;20040;-73
2022/03/17 00:24:43;;;;;;;22.95;15.52;;;10.10;99.90;;;;;;5070142;28;20346;-73
2022/03/17 00:27:10;;;;;;;19.33;12.10;;;10.20;99.90;;;;;;5036457;28;20028;-73
2022/03/17 00:29:36;;;;;;;23.75;15.73;;;10.10;99.90;;;;;;5069200;28;20040;-73
2022/03/17 00:32:03;;;;;;;22.92;14.52;;;10.10;99.90;;;;;;5054436;28;20268;-73
2022/03/17 00:34:29;;;;;;;21.80;12.95;;;10.10;99.90;;;;;;5074849;28;20036;-73
2022/03/17 00:36:55;;;;;;;21.00;12.52;;;10.10;99.90;;;;;;5074657;28;20107;-73
2022/03/17 00:39:21;;;;;;;23.42;15.10;;;10.10;99.90;;;;;;5053751;28;20036;-73
2022/03/17 00:41:47;;;;;;;26.30;16.88;;;10.10;99.90;;;;;;5053043;28;20350;-73
2022/03/17 00:44:13;;;;;;;21.83;12.55;;;10.10;99.90;;;;;;5078546;28;20028;-73
2022/03/17 00:46:49;;;;;;;23.15;14.43;;;10.00;99.90;;;;;;5060284;28;20036;-73
2022/03/17 00:49:14;;;;;;;20.20;12.63;;;10.10;99.90;;;;;;5043931;28;20206;-74
2022/03/17 00:51:40;;;;;;;22.55;13.68;;;10.00;99.90;;;;;;5058111;28;20055;-73
2022/03/17 00:54:06;;;;;;;20.45;12.52;;;10.10;99.90;;;;;;5062099;28;20048;-73
2022/03/17 00:56:32;;;;;;;27.00;17.38;;;10.10;99.90;;;;;;5062284;28;20111;-73
2022/03/17 00:58:57;;;;;;;24.45;16.02;;;10.10;99.90;;;;;;5069195;28;20048;-73
2022/03/17 01:01:23;;;;;;;21.00;14.07;;;10.00;99.90;;;;;;5075837;28;20044;-74
2022/03/17 01:03:49;;;;;;;23.02;15.57;;;10.10;99.90;;;;;;5065736;28;20037;-74
2022/03/17 01:06:15;;;;;;;25.30;16.45;;;10.10;99.90;;;;;;5071689;28;20040;-74
2022/03/17 01:08:40;;;;;;;28.15;18.35;;;10.00;99.90;;;;;;5041294;28;20395;-74
2022/03/17 01:11:07;;;;;;;21.10;13.50;;;10.00;99.90;;;;;;5049562;28;20052;-74
2022/03/17 01:13:33;;;;;;;23.45;14.45;;;10.00;99.90;;;;;;5042890;28;20094;-73
2022/03/17 01:15:59;;;;;;;26.85;16.95;;;10.00;99.90;;;;;;5039950;28;20028;-74
2022/03/17 01:18:24;;;;;;;24.75;15.57;;;10.00;99.90;;;;;;5062956;28;20052;-73
2022/03/17 01:20:50;;;;;;;24.17;16.80;;;10.00;99.90;;;;;;5043554;28;21111;-74
2022/03/17 01:23:17;;;;;;;25.83;17.00;;;10.00;99.90;;;;;;5044945;28;20036;-74
2022/03/17 01:25:43;;;;;;;26.00;16.48;;;10.00;99.90;;;;;;5061078;28;20250;-74
2022/03/17 01:28:09;;;;;;;28.10;16.05;;;10.00;99.90;;;;;;5061538;28;20056;-74
2022/03/17 01:30:35;;;;;;;22.10;15.18;;;10.00;99.90;;;;;;5027031;28;20058;-74
2022/03/17 01:33:02;;;;;;;24.83;16.13;;;10.00;99.90;;;;;;5062530;28;20063;-74
2022/03/17 01:35:28;;;;;;;23.27;15.38;;;10.00;99.90;;;;;;5026593;28;20090;-74
2022/03/17 01:37:54;;;;;;;26.70;15.20;;;10.00;99.90;;;;;;5045036;28;20028;-75
2022/03/17 01:40:19;;;;;;;23.90;14.35;;;10.00;99.90;;;;;;5054900;28;20331;-73
2022/03/17 01:42:45;;;;;;;31.63;18.27;;;10.00;99.90;;;;;;5031450;28;20123;-73
2022/03/17 01:45:11;;;;;;;27.60;19.05;;;10.00;99.90;;;;;;5026557;28;20098;-73
2022/03/17 01:47:37;;;;;;;26.60;15.85;;;10.00;99.90;;;;;;5061921;28;20078;-73
2022/03/17 01:50:03;;;;;;;24.38;17.75;;;10.00;99.90;;;;;;5041408;28;20040;-73
2022/03/17 01:52:29;;;;;;;27.25;17.42;;;10.00;99.90;;;;;;5063326;28;20041;-73
2022/03/17 01:54:56;;;;;;;23.92;15.00;;;9.90;99.90;;;;;;5046017;28;20037;-73
2022/03/17 01:57:22;;;;;;;26.73;16.85;;;10.00;99.90;;;;;;5042705;28;20040;-73
2022/03/17 01:59:49;;;;;;;29.75;18.52;;;10.00;99.90;;;;;;5062965;28;20364;-73
2022/03/17 02:02:15;;;;;;;25.60;18.17;;;10.00;99.90;;;;;;5062968;28;20048;-73
2022/03/17 02:04:41;;;;;;;27.73;16.67;;;10.00;99.90;;;;;;5062807;28;20037;-74
2022/03/17 02:07:07;;;;;;;26.35;17.95;;;10.00;99.90;;;;;;5060203;28;20154;-73
2022/03/17 02:09:35;;;;;;;22.67;13.20;;;10.00;99.90;;;;;;5062027;28;20099;-74
2022/03/17 02:14:54;;;;;;;27.30;18.15;;;10.00;99.90;;;;;;5054444;28;20210;-74
2022/03/17 02:17:22;;;;;;;26.52;16.70;;;10.00;99.90;;;;;;5067985;28;20111;-73
2022/03/17 02:19:48;;;;;;;26.13;15.35;;;10.00;99.90;;;;;;5062031;28;20044;-73
2022/03/17 02:22:19;;;;;;;28.85;18.20;;;10.00;99.90;;;;;;5067185;28;20039;-74
2022/03/17 02:27:35;;;;;;;26.30;15.40;;;10.10;99.90;;;;;;5064152;28;20086;-74
2022/03/17 02:30:03;;;;;;;21.77;13.77;;;10.10;99.90;;;;;;5063487;28;20102;-74
2022/03/17 02:32:29;;;;;;;28.48;16.50;;;10.10;99.90;;;;;;5070124;28;20056;-74
2022/03/17 02:34:55;;;;;;;28.13;17.35;;;10.20;99.90;;;;;;5053228;28;20089;-74
2022/03/17 02:37:22;;;;;;;28.83;17.25;;;10.10;99.90;;;;;;5067426;28;20029;-74
2022/03/17 02:39:48;;;;;;;27.73;17.58;;;10.10;99.90;;;;;;5050409;28;20053;-74
2022/03/17 02:42:14;;;;;;;29.20;18.77;;;10.10;99.90;;;;;;5053673;28;20104;-74
2022/03/17 02:44:39;;;;;;;29.00;17.60;;;10.10;99.90;;;;;;5048405;28;20072;-74
2022/03/17 02:47:06;;;;;;;27.63;16.58;;;10.20;99.90;;;;;;5044371;28;20025;-74
2022/03/17 02:49:33;;;;;;;25.13;15.50;;;10.20;99.90;;;;;;5064993;28;20039;-74
2022/03/17 02:51:58;;;;;;;23.08;14.30;;;10.20;99.90;;;;;;5059111;28;20132;-74
2022/03/17 02:54:24;;;;;;;24.75;15.30;;;10.30;99.90;;;;;;5069434;28;20032;-73
2022/03/17 02:56:50;;;;;;;26.70;16.77;;;10.20;99.90;;;;;;5052921;28;20219;-74
2022/03/17 02:59:15;;;;;;;28.88;18.20;;;10.30;99.90;;;;;;5064337;28;20032;-74
2022/03/17 03:01:41;;;;;;;25.25;16.17;;;10.30;99.90;;;;;;5045813;28;20052;-74
2022/03/17 03:04:07;;;;;;;28.98;17.13;;;10.30;99.90;;;;;;5051959;28;20044;-74
2022/03/17 03:06:32;;;;;;;27.95;17.92;;;10.30;99.90;;;;;;5059587;28;20044;-75
2022/03/17 03:08:59;;;;;;;26.17;15.77;;;10.30;99.90;;;;;;5055833;28;20036;-74
2022/03/17 03:11:25;;;;;;;22.17;14.27;;;10.30;99.90;;;;;;5031206;28;20060;-74
2022/03/17 03:13:52;;;;;;;30.27;18.75;;;10.40;99.90;;;;;;5048614;28;20056;-74
2022/03/17 03:16:18;;;;;;;28.35;18.50;;;10.30;99.90;;;;;;5076310;28;20102;-74
2022/03/17 03:18:44;;;;;;;26.23;17.33;;;10.30;99.90;;;;;;5052278;28;20044;-74
2022/03/17 03:21:10;;;;;;;24.20;16.80;;;10.30;99.90;;;;;;5066047;28;20056;-74
2022/03/17 03:23:38;;;;;;;32.17;18.50;;;10.30;99.90;;;;;;5070354;28;20261;-74
2022/03/17 03:26:04;;;;;;;23.42;15.45;;;10.30;99.90;;;;;;5070233;28;20043;-74
2022/03/17 03:28:30;;;;;;;24.52;16.90;;;10.30;99.90;;;;;;5072800;28;20029;-74
2022/03/17 03:30:55;;;;;;;25.67;14.82;;;10.40;99.90;;;;;;5051127;28;20134;-74
2022/03/17 03:33:21;;;;;;;28.60;18.08;;;10.30;99.90;;;;;;5051005;28;20418;-74
2022/03/17 03:38:32;;;;;;;27.52;18.13;;;10.30;99.90;;;;;;5058538;28;20079;-74
2022/03/17 03:40:59;;;;;;;28.58;18.33;;;10.30;99.90;;;;;;5031766;28;20033;-74
2022/03/17 03:43:25;;;;;;;29.05;17.27;;;10.30;99.90;;;;;;5072945;28;20041;-74
2022/03/17 03:45:51;;;;;;;20.58;12.98;;;10.40;99.90;;;;;;5049946;28;20046;-74
2022/03/17 03:48:17;;;;;;;27.98;18.35;;;10.50;99.90;;;;;;5065261;28;20029;-74
2022/03/17 03:50:42;;;;;;;27.13;18.45;;;10.40;99.90;;;;;;5038437;28;20116;-74
2022/03/17 03:53:08;;;;;;;25.73;16.73;;;10.50;99.90;;;;;;5051999;28;20064;-74
2022/03/17 03:55:34;;;;;;;26.45;17.73;;;10.50;99.90;;;;;;5074155;28;20044;-73
2022/03/17 03:58:00;;;;;;;26.45;18.08;;;10.50;99.90;;;;;;5054145;28;20066;-74
2022/03/17 04:00:32;;;;;;;26.48;17.77;;;10.50;99.90;;;;;;5058137;28;20106;-74
2022/03/17 04:02:58;;;;;;;27.25;18.08;;;10.60;99.90;;;;;;5069608;28;20086;-74
2022/03/17 04:05:26;;;;;;;30.70;20.20;;;10.60;99.90;;;;;;5051498;28;20040;-74
2022/03/17 04:07:55;;;;;;;25.02;17.98;;;10.70;99.90;;;;;;5055045;28;20040;-73
2022/03/17 04:10:21;;;;;;;25.63;15.60;;;10.60;99.90;;;;;;5046376;28;20037;-74
2022/03/17 04:12:46;;;;;;;28.83;19.48;;;10.80;99.90;;;;;;5058970;28;20091;-73
2022/03/17 04:15:12;;;;;;;30.02;20.08;;;10.80;99.90;;;;;;5070771;28;20076;-74
2022/03/17 04:17:38;;;;;;;28.20;18.17;;;10.80;99.90;;;;;;5050185;28;20043;-74
2022/03/17 04:20:05;;;;;;;31.38;21.42;;;10.80;99.90;;;;;;5065564;28;20034;-74
2022/03/17 04:22:31;;;;;;;26.90;19.15;;;10.90;99.90;;;;;;5048963;28;20103;-74
2022/03/17 04:25:23;;;;;;;29.48;19.45;;;10.90;99.90;;;;;;5059705;28;20051;-74
2022/03/17 04:27:49;;;;;;;29.77;20.42;;;11.00;99.90;;;;;;5055973;28;20154;-74
2022/03/17 04:30:15;;;;;;;29.00;19.33;;;11.10;99.90;;;;;;5050119;28;20110;-74
2022/03/17 04:32:40;;;;;;;32.45;22.25;;;11.40;99.90;;;;;;5070323;28;20257;-73
2022/03/17 04:35:07;;;;;;;26.73;19.67;;;11.60;99.90;;;;;;5062202;28;20032;-74
2022/03/17 04:37:33;;;;;;;31.60;21.40;;;11.50;99.90;;;;;;5045198;28;20041;-74
2022/03/17 04:39:58;;;;;;;31.73;20.08;;;11.80;99.90;;;;;;5066067;28;20341;-74
2022/03/17 04:42:24;;;;;;;36.75;23.60;;;12.00;99.90;;;;;;5060888;28;20041;-73
2022/03/17 04:44:50;;;;;;;41.10;25.98;;;12.00;99.90;;;;;;5054906;28;20205;-73
2022/03/17 04:47:18;;;;;;;37.65;24.23;;;12.10;99.90;;;;;;5055166;28;20071;-74
2022/03/17 04:49:50;;;;;;;35.17;25.30;;;12.20;99.90;;;;;;5050478;28;20326;-74
2022/03/17 04:55:00;;;;;;;38.08;26.02;;;12.90;99.90;;;;;;5074912;28;20032;-75
2022/03/17 04:57:27;;;;;;;40.60;26.45;;;13.10;99.90;;;;;;5070138;28;20226;-75
2022/03/17 04:59:52;;;;;;;40.22;27.67;;;12.50;99.90;;;;;;5067736;28;20088;-76
2022/03/17 05:02:18;;;;;;;39.03;27.30;;;13.30;99.90;;;;;;5040834;28;20204;-76
2022/03/17 05:04:44;;;;;;;44.40;28.67;;;14.00;99.90;;;;;;5038584;28;20029;-77
2022/03/17 05:07:09;;;;;;;42.70;28.08;;;13.80;99.90;;;;;;5040910;28;20029;-78
2022/03/17 05:09:35;;;;;;;44.00;29.40;;;14.30;99.90;;;;;;5046346;28;20315;-78
2022/03/17 05:12:01;;;;;;;46.40;28.85;;;13.20;99.90;;;;;;5072871;28;20048;-78
2022/03/17 05:14:27;;;;;;;47.75;30.05;;;14.60;99.90;;;;;;5035747;28;20049;-78
2022/03/17 05:16:52;;;;;;;50.03;31.50;;;14.70;99.90;;;;;;5070490;28;20044;-76
2022/03/17 05:19:18;;;;;;;50.28;32.03;;;15.10;99.90;;;;;;5063786;28;20041;-76
2022/03/17 05:21:44;;;;;;;47.17;30.30;;;14.50;99.90;;;;;;5064276;28;20048;-76
2022/03/17 05:24:13;;;;;;;50.97;32.20;;;15.90;99.90;;;;;;5053955;28;20040;-76
2022/03/17 05:26:39;;;;;;;57.15;34.40;;;15.30;99.90;;;;;;5059655;28;20211;-75
2022/03/17 05:29:06;;;;;;;54.28;33.70;;;14.80;99.90;;;;;;5043578;28;20029;-75
2022/03/17 05:31:31;;;;;;;47.60;28.67;;;15.50;99.90;;;;;;5050751;28;20111;-75
2022/03/17 05:33:57;;;;;;;40.63;24.70;;;16.50;99.90;;;;;;5032927;28;20063;-75
2022/03/17 05:36:25;;;;;;;20.98;14.27;;;15.90;99.90;;;;;;5066805;28;20036;-74
2022/03/17 05:38:51;;;;;;;14.10;9.32;;;15.60;99.90;;;;;;5055467;28;20204;-75
2022/03/17 05:41:16;;;;;;;11.75;8.75;;;14.10;99.90;;;;;;5028688;28;20094;-75
2022/03/17 05:43:42;;;;;;;12.80;8.68;;;14.00;99.90;;;;;;5075782;28;20341;-75
2022/03/17 05:46:08;;;;;;;10.98;7.00;;;15.40;99.90;;;;;;5040220;28;20028;-76
2022/03/17 05:48:33;;;;;;;10.48;8.25;;;15.70;99.90;;;;;;5066830;28;20052;-75
2022/03/17 05:50:59;;;;;;;10.63;7.85;;;16.10;99.90;;;;;;5045688;28;20273;-75
2022/03/17 05:53:25;;;;;;;8.93;7.13;;;15.20;99.90;;;;;;5070791;28;20044;-75
2022/03/17 05:55:50;;;;;;;10.40;8.27;;;14.10;99.90;;;;;;5074500;28;20076;-76
2022/03/17 05:58:16;;;;;;;10.10;7.47;;;13.70;99.90;;;;;;5065599;28;20040;-75
2022/03/17 06:00:42;;;;;;;11.30;8.02;;;16.40;99.90;;;;;;5059648;28;20052;-74
2022/03/17 06:03:07;;;;;;;10.75;7.88;;;14.20;99.90;;;;;;5066402;28;20064;-75
2022/03/17 06:05:33;;;;;;;14.63;9.90;;;15.30;99.90;;;;;;5057779;28;20048;-75
2022/03/17 06:08:00;;;;;;;20.20;12.70;;;14.90;99.90;;;;;;5051495;28;20021;-75
2022/03/17 06:10:34;;;;;;;21.85;11.40;;;15.80;99.90;;;;;;5071106;28;20281;-76
2022/03/17 06:13:02;;;;;;;20.50;12.05;;;14.40;99.90;;;;;;5068841;28;20267;-75
2022/03/17 06:15:28;;;;;;;21.48;11.85;;;14.90;99.90;;;;;;5066754;28;20063;-74
2022/03/17 06:17:58;;;;;;;18.88;11.88;;;15.90;99.90;;;;;;5072309;28;20208;-74
2022/03/17 06:20:30;;;;;;;21.95;12.55;;;15.70;99.90;;;;;;5072903;28;20326;-73
2022/03/17 06:22:58;;;;;;;19.25;10.63;;;15.90;99.90;;;;;;5070733;28;20032;-73
2022/03/17 06:25:30;;;;;;;21.58;12.77;;;15.10;99.90;;;;;;5050108;28;20040;-73
2022/03/17 06:27:56;;;;;;;17.08;10.63;;;14.00;99.90;;;;;;5067386;28;20335;-74
2022/03/17 06:30:28;;;;;;;17.77;8.35;;;16.40;99.90;;;;;;5053826;28;20263;-74
2022/03/17 06:32:54;;;;;;;14.75;7.40;;;14.60;99.90;;;;;;5054928;28;20056;-75
2022/03/17 06:35:25;;;;;;;13.90;6.60;;;16.30;99.90;;;;;;5069100;28;20828;-76
2022/03/17 06:37:53;;;;;;;16.23;6.88;;;16.30;99.90;;;;;;5061130;28;20055;-74
2022/03/17 06:40:19;;;;;;;13.18;6.07;;;15.50;99.90;;;;;;5069797;28;20350;-75
2022/03/17 06:42:46;;;;;;;16.20;5.93;;;15.00;99.90;;;;;;5069705;28;20032;-75
2022/03/17 06:45:12;;;;;;;14.43;7.43;;;13.10;99.90;;;;;;5073987;28;20108;-73
2022/03/17 06:47:38;;;;;;;13.30;6.57;;;15.90;99.90;;;;;;5063309;28;20028;-74
2022/03/17 06:50:06;;;;;;;13.35;6.78;;;12.90;99.90;;;;;;5060982;28;20036;-75
2022/03/17 06:52:31;;;;;;;11.43;5.70;;;14.00;99.90;;;;;;5063940;28;20048;-73
2022/03/17 06:54:57;;;;;;;15.77;6.28;;;15.20;99.90;;;;;;5055538;28;20112;-73
2022/03/17 06:57:23;;;;;;;11.18;5.60;;;14.10;99.90;;;;;;5069897;28;20048;-73
2022/03/17 06:59:50;;;;;;;15.63;6.78;;;15.20;99.90;;;;;;5072309;28;20196;-73
2022/03/17 07:02:16;;;;;;;14.82;5.85;;;14.40;99.90;;;;;;5047511;28;20037;-72
2022/03/17 07:04:42;;;;;;;11.45;4.70;;;15.00;99.90;;;;;;5067533;28;20050;-73
2022/03/17 07:07:08;;;;;;;14.05;5.03;;;14.70;99.90;;;;;;5044368;28;20103;-73
2022/03/17 07:09:35;;;;;;;12.38;3.65;;;12.50;99.90;;;;;;5064345;28;20215;-73
2022/03/17 07:12:01;;;;;;;9.65;3.58;;;13.10;99.90;;;;;;5067284;28;20200;-72
2022/03/17 07:14:27;;;;;;;6.88;3.15;;;13.30;99.90;;;;;;5075172;28;20048;-72
2022/03/17 07:22:27;;;;;;;10.35;2.58;;;14.30;99.90;;;;;;5056017;28;20094;-73
2022/03/17 07:24:53;;;;;;;9.68;3.03;;;13.60;99.90;;;;;;5062210;28;20055;-73
2022/03/17 07:27:21;;;;;;;7.22;2.13;;;13.20;99.90;;;;;;5055418;28;20040;-73
2022/03/17 07:29:48;;;;;;;8.25;2.67;;;12.10;99.90;;;;;;5066402;28;20054;-74
2022/03/17 07:32:14;;;;;;;5.07;2.03;;;12.20;99.90;;;;;;5059663;28;20047;-73
2022/03/17 07:34:39;;;;;;;8.55;2.10;;;13.80;99.90;;;;;;5068495;28;20102;-73
2022/03/17 07:37:05;;;;;;;8.43;2.50;;;12.60;99.90;;;;;;5071117;28;20032;-74
2022/03/17 07:39:31;;;;;;;9.98;2.40;;;13.60;99.90;;;;;;5067782;28;20033;-73
2022/03/17 07:41:57;;;;;;;9.07;2.00;;;11.90;99.90;;;;;;5045836;28;20052;-72
2022/03/17 07:44:22;;;;;;;10.10;2.58;;;13.20;99.90;;;;;;5074103;28;20052;-73
2022/03/17 07:46:48;;;;;;;7.90;2.95;;;11.90;99.90;;;;;;5051920;28;20044;-72
2022/03/17 07:49:14;;;;;;;12.98;2.92;;;11.40;99.90;;;;;;5038109;28;20068;-73
2022/03/17 07:51:42;;;;;;;8.68;2.28;;;11.50;99.90;;;;;;5062931;28;20040;-72
2022/03/17 07:54:07;;;;;;;7.22;2.05;;;12.20;99.90;;;;;;5058872;28;20041;-73
2022/03/17 07:56:37;;;;;;;7.45;1.77;;;12.80;99.90;;;;;;5054512;28;20056;-73
2022/03/17 07:59:05;;;;;;;9.70;1.92;;;12.80;99.90;;;;;;5070673;28;20048;-73
2022/03/17 08:01:31;;;;;;;6.47;1.92;;;11.80;99.90;;;;;;5041233;28;20388;-72
2022/03/17 08:03:57;;;;;;;11.90;2.15;;;12.60;99.90;;;;;;5061257;28;20037;-74
2022/03/17 08:06:24;;;;;;;9.95;2.15;;;11.80;99.90;;;;;;5040537;28;20094;-74
2022/03/17 08:08:50;;;;;;;13.05;2.75;;;12.60;99.90;;;;;;5076191;28;20037;-74
2022/03/17 08:11:15;;;;;;;14.18;2.42;;;11.90;99.90;;;;;;5068289;28;20075;-74
2022/03/17 08:13:41;;;;;;;12.20;2.10;;;12.40;99.90;;;;;;5079064;28;20047;-73
2022/03/17 08:16:08;;;;;;;13.60;2.80;;;12.20;99.90;;;;;;5046196;28;20048;-74
2022/03/17 08:18:34;;;;;;;10.55;2.33;;;11.80;99.90;;;;;;5069616;28;20056;-74
2022/03/17 08:21:00;;;;;;;11.90;2.35;;;12.50;99.90;;;;;;5072218;28;20243;-73
2022/03/17 08:23:25;;;;;;;12.15;2.00;;;11.90;99.90;;;;;;5080531;28;20119;-73
2022/03/17 08:25:51;;;;;;;16.85;2.30;;;12.00;99.90;;;;;;5073069;28;20070;-76
2022/03/17 08:28:18;;;;;;;14.35;3.15;;;11.60;99.90;;;;;;5063387;28;20054;-75
2022/03/17 08:30:47;;;;;;;11.35;2.72;;;11.30;99.90;;;;;;5069910;28;20055;-75
2022/03/17 08:33:18;;;;;;;9.10;2.30;;;10.90;99.90;;;;;;5062537;28;20048;-75
2022/03/17 08:35:44;;;;;;;46.00;4.20;;;11.00;99.90;;;;;;5077160;28;20059;-76
2022/03/17 08:38:10;;;;;;;20.38;3.35;;;11.30;99.90;;;;;;5051302;28;20040;-76
2022/03/17 08:40:38;;;;;;;14.88;3.25;;;11.60;99.90;;;;;;5049177;28;20128;-77
2022/03/17 08:43:06;;;;;;;17.33;3.85;;;11.00;99.90;;;;;;5069204;28;20044;-71
2022/03/17 08:51:01;;;;;;;13.73;2.58;;;11.10;99.90;;;;;;5071590;28;20037;-73
2022/03/17 08:53:27;;;;;;;12.48;2.25;;;10.80;99.90;;;;;;5076215;28;20054;-71
2022/03/17 08:55:52;;;;;;;11.45;2.15;;;10.90;99.90;;;;;;5066248;28;20040;-72
2022/03/17 08:58:18;;;;;;;8.20;2.08;;;10.10;99.90;;;;;;5047494;28;20216;-71
2022/03/17 09:00:44;;;;;;;7.07;1.77;;;10.40;99.90;;;;;;5066904;28;20040;-72
2022/03/17 09:03:10;;;;;;;4.88;1.30;;;10.00;99.90;;;;;;5038955;28;20036;-72
2022/03/17 09:05:36;;;;;;;7.13;1.55;;;9.40;99.90;;;;;;5053293;28;20378;-73
2022/03/17 09:08:04;;;;;;;10.35;1.40;;;9.60;99.90;;;;;;5048803;28;20264;-74
2022/03/17 09:10:31;;;;;;;7.60;1.65;;;9.20;99.90;;;;;;5061610;28;20041;-73
2022/03/17 09:13:06;;;;;;;8.30;1.83;;;9.50;99.90;;;;;;5067287;28;20048;-70
2022/03/17 09:15:36;;;;;;;8.05;2.85;;;9.40;99.90;;;;;;5075179;28;20272;-72
2022/03/17 09:18:02;;;;;;;10.68;2.00;;;9.80;99.90;;;;;;5045912;28;20104;-72
2022/03/17 09:20:28;;;;;;;12.40;2.47;;;9.90;99.90;;;;;;5073772;28;20467;-72
2022/03/17 09:22:56;;;;;;;6.65;1.92;;;9.80;99.90;;;;;;5051554;28;20033;-73
2022/03/17 09:25:24;;;;;;;11.63;2.25;;;9.70;99.90;;;;;;5065938;28;20192;-73
2022/03/17 09:27:51;;;;;;;5.85;1.70;;;9.30;99.90;;;;;;5078774;28;20270;-73
2022/03/17 09:30:17;;;;;;;9.52;2.00;;;9.30;99.90;;;;;;5050129;28;20047;-73
2022/03/17 09:32:45;;;;;;;14.98;2.13;;;9.00;99.90;;;;;;5070331;28;20103;-72
2022/03/17 09:35:11;;;;;;;10.90;2.28;;;8.90;99.90;;;;;;5056482;28;20338;-75
2022/03/17 09:37:38;;;;;;;10.15;1.58;;;8.90;99.90;;;;;;5063104;28;20321;-73
2022/03/17 09:40:05;;;;;;;12.90;2.10;;;9.00;99.90;;;;;;5061997;28;20056;-74
2022/03/17 09:42:31;;;;;;;12.63;2.55;;;8.80;99.90;;;;;;5054792;28;20118;-73
2022/03/17 09:44:57;;;;;;;15.45;2.33;;;9.00;99.90;;;;;;5061757;28;20246;-74
2022/03/17 09:47:43;;;;;;;12.35;3.03;;;9.20;99.90;;;;;;5066901;28;20049;-73
2022/03/17 09:50:13;;;;;;;9.15;1.75;;;9.20;99.90;;;;;;5056557;28;20422;-74
2022/03/17 09:52:41;;;;;;;10.73;2.35;;;9.50;99.90;;;;;;5060347;28;20049;-74
2022/03/17 09:55:10;;;;;;;8.48;2.50;;;9.40;99.90;;;;;;5063880;28;20400;-74
2022/03/17 09:57:45;;;;;;;10.45;2.33;;;9.40;99.90;;;;;;5043928;28;20135;-73
2022/03/17 10:00:12;;;;;;;10.65;1.98;;;9.10;99.90;;;;;;5095668;28;20066;-75
2022/03/17 10:02:39;;;;;;;9.43;2.00;;;9.20;99.90;;;;;;5079035;28;20037;-75
2022/03/17 10:05:06;;;;;;;9.45;2.10;;;9.50;99.90;;;;;;5047316;28;20032;-74
2022/03/17 10:07:35;;;;;;;12.45;2.08;;;9.90;99.90;;;;;;5068525;28;20045;-73
2022/03/17 10:10:01;;;;;;;6.53;1.98;;;9.90;99.90;;;;;;5076604;28;20075;-74
2022/03/17 10:12:30;;;;;;;11.35;2.15;;;9.90;99.90;;;;;;5032370;28;20053;-74
2022/03/17 10:14:57;;;;;;;11.27;2.10;;;9.90;99.90;;;;;;5039961;28;20245;-74
2022/03/17 10:17:31;;;;;;;9.52;2.08;;;10.10;99.90;;;;;;5067433;28;20160;-74
2022/03/17 10:20:16;;;;;;;9.05;2.00;;;9.80;99.90;;;;;;5074915;28;20047;-75
2022/03/17 10:22:49;;;;;;;14.15;2.67;;;10.10;99.90;;;;;;5062113;28;20338;-74
2022/03/17 10:25:18;;;;;;;9.00;2.45;;;10.10;99.90;;;;;;5058161;28;20362;-74
2022/03/17 10:27:45;;;;;;;11.00;2.00;;;10.10;99.90;;;;;;5068913;28;20196;-74
2022/03/17 10:30:13;;;;;;;9.48;2.67;;;10.00;99.90;;;;;;5074999;28;20052;-74
2022/03/17 10:32:39;;;;;;;10.07;1.85;;;9.80;99.90;;;;;;5059850;28;20196;-75
2022/03/17 10:35:08;;;;;;;11.00;2.13;;;10.00;99.90;;;;;;5071969;28;20119;-74
2022/03/17 10:37:36;;;;;;;8.60;1.98;;;9.90;99.90;;;;;;5076666;28;20072;-75
2022/03/17 10:40:09;;;;;;;8.60;1.73;;;9.60;99.90;;;;;;5067323;28;20074;-74
2022/03/17 10:42:35;;;;;;;9.18;1.80;;;10.00;99.90;;;;;;5066806;28;20040;-74
2022/03/17 10:45:05;;;;;;;10.85;2.03;;;10.30;99.90;;;;;;5063261;28;20037;-73
2022/03/17 10:47:37;;;;;;;9.90;2.55;;;9.90;99.90;;;;;;5061083;28;20059;-73
2022/03/17 10:50:18;;;;;;;9.43;2.13;;;10.70;99.90;;;;;;5076492;28;20052;-74
2022/03/17 10:52:56;;;;;;;6.88;2.10;;;11.00;99.90;;;;;;5076957;28;20047;-73
2022/03/17 10:55:26;;;;;;;7.43;2.20;;;11.10;99.90;;;;;;5049114;28;20394;-74
2022/03/17 10:57:59;;;;;;;12.95;2.35;;;11.70;99.90;;;;;;5050182;28;20049;-74
2022/03/17 11:00:32;;;;;;;7.33;1.80;;;10.90;99.90;;;;;;5058591;28;20403;-75
2022/03/17 11:02:58;;;;;;;9.73;1.75;;;10.90;99.90;;;;;;5054651;28;20039;-75
2022/03/17 11:05:25;;;;;;;9.93;2.22;;;10.60;99.90;;;;;;5061670;28;20401;-75
2022/03/17 11:07:54;;;;;;;11.57;2.95;;;10.40;99.90;;;;;;5053756;28;20044;-74
2022/03/17 11:10:22;;;;;;;9.82;2.25;;;10.30;99.90;;;;;;5021680;28;20055;-74
2022/03/17 11:12:50;;;;;;;12.68;1.85;;;10.00;99.90;;;;;;5045666;28;20063;-73
2022/03/17 11:15:28;;;;;;;8.35;1.75;;;9.90;99.90;;;;;;5054471;28;20324;-74
2022/03/17 11:17:59;;;;;;;10.80;1.73;;;10.10;99.90;;;;;;5058868;28;20060;-72
2022/03/17 11:20:25;;;;;;;10.95;2.35;;;10.20;99.90;;;;;;5069223;28;20040;-72
2022/03/17 11:23:16;;;;;;;14.85;2.95;;;10.30;99.90;;;;;;5071643;28;20373;-72
2022/03/17 11:25:58;;;;;;;14.77;2.10;;;10.30;99.90;;;;;;5058802;28;20043;-73
2022/03/17 11:28:39;;;;;;;8.30;2.00;;;11.30;99.90;;;;;;5058811;28;20234;-73
2022/03/17 11:31:07;;;;;;;10.02;1.98;;;11.10;99.90;;;;;;5066643;28;20280;-73
2022/03/17 11:33:39;;;;;;;6.55;1.90;;;10.90;99.90;;;;;;5070344;28;20056;-73
2022/03/17 11:36:08;;;;;;;6.15;1.98;;;10.30;99.90;;;;;;5061040;28;20239;-73
2022/03/17 11:38:37;;;;;;;10.75;2.30;;;10.70;99.90;;;;;;5058797;28;20053;-74
2022/03/17 11:41:15;;;;;;;12.52;2.63;;;10.70;99.90;;;;;;5057047;28;20304;-73
2022/03/17 11:43:47;;;;;;;10.88;2.78;;;10.70;99.90;;;;;;5060063;28;20033;-74
2022/03/17 11:46:20;;;;;;;8.02;2.15;;;11.00;99.90;;;;;;5037248;28;20094;-73
2022/03/17 11:49:02;;;;;;;9.82;2.30;;;11.40;99.90;;;;;;5059099;28;20043;-72
2022/03/17 11:51:27;;;;;;;9.40;2.00;;;11.70;99.90;;;;;;5052782;28;20060;-73
2022/03/17 11:53:53;;;;;;;8.65;2.63;;;11.70;99.90;;;;;;5055346;28;20241;-75
2022/03/17 11:56:35;;;;;;;8.02;1.75;;;11.90;99.90;;;;;;5076772;28;20036;-74
2022/03/17 11:59:01;;;;;;;6.55;1.85;;;11.80;99.90;;;;;;5076731;28;20350;-73
2022/03/17 12:01:34;;;;;;;7.05;1.85;;;11.50;99.90;;;;;;5073096;28;20053;-72
2022/03/17 12:04:01;;;;;;;7.50;2.00;;;10.90;99.90;;;;;;5036166;28;20045;-75
2022/03/17 12:06:38;;;;;;;7.22;1.67;;;10.60;99.90;;;;;;5069267;28;20112;-73
2022/03/17 12:09:07;;;;;;;8.25;2.20;;;10.50;99.90;;;;;;5069206;28;20037;-74
2022/03/17 12:11:37;;;;;;;9.00;2.20;;;10.20;99.90;;;;;;5070681;28;20058;-77
2022/03/17 12:14:13;;;;;;;7.53;1.88;;;10.20;99.90;;;;;;5066142;28;20048;-75
2022/03/17 12:16:49;;;;;;;7.85;2.10;;;10.60;99.90;;;;;;5068241;28;20060;-75
2022/03/17 12:19:48;;;;;;;10.00;1.90;;;10.50;99.90;;;;;;5066079;28;20044;-75
2022/03/17 12:22:35;;;;;;;6.82;2.13;;;10.70;99.90;;;;;;5062281;28;20126;-76
2022/03/17 12:25:01;;;;;;;6.72;2.17;;;10.80;99.90;;;;;;5071081;28;20045;-77
2022/03/17 12:27:49;;;;;;;11.50;2.88;;;10.90;99.90;;;;;;5045644;28;20061;-76
2022/03/17 12:30:16;;;;;;;10.80;1.90;;;11.10;99.90;;;;;;5046174;28;20327;-76
2022/03/17 12:32:48;;;;;;;7.68;2.08;;;11.10;99.90;;;;;;5064024;28;20195;-77
2022/03/17 12:35:15;;;;;;;7.93;1.58;;;11.10;99.90;;;;;;5063875;28;20045;-77
2022/03/17 12:37:43;;;;;;;8.20;2.15;;;11.00;99.90;;;;;;5046320;28;20040;-77
2022/03/17 12:40:16;;;;;;;11.82;2.30;;;11.00;99.90;;;;;;5057744;28;20056;-77
2022/03/17 12:42:44;;;;;;;8.88;1.90;;;10.80;99.90;;;;;;5074694;28;20389;-78
2022/03/17 12:45:18;;;;;;;10.70;1.85;;;11.10;99.90;;;;;;5064333;28;20111;-77
2022/03/17 12:47:46;;;;;;;5.88;1.58;;;11.30;99.90;;;;;;5054858;28;20112;-77
2022/03/17 12:50:21;;;;;;;8.68;2.22;;;11.40;99.90;;;;;;5046237;28;20325;-78
2022/03/17 12:52:47;;;;;;;;;;;11.60;99.90;;;;;;5047818;28;20303;-78
2022/03/17 12:55:17;;;;;;;6.55;1.50;;;11.40;99.90;;;;;;5048837;28;19928;-77
2022/03/17 12:57:43;;;;;;;9.75;1.73;;;11.60;99.90;;;;;;5060732;28;20276;-77
2022/03/17 13:00:10;;;;;;;6.82;1.90;;;11.20;99.90;;;;;;5058444;28;20052;-78